TimeMDT,TemperatureF,Dew PointF,Humidity,Sea Level PressureIn,VisibilityMPH,Wind Direction,Wind SpeedMPH,Gust SpeedMPH,PrecipitationIn,Events,Conditions,WindDirDegrees,DateUTC
12:53 AM,70.0,59.0,68,29.90,10.0,ESE,13.8,-,N/A,,Clear,110,2013-07-08 06:53:00
1:53 AM,66.9,60.1,79,29.89,10.0,SSE,5.8,-,N/A,,Clear,150,2013-07-08 07:53:00
2:53 AM,66.9,60.1,79,29.90,10.0,South,10.4,-,N/A,,Clear,170,2013-07-08 08:53:00
3:53 AM,64.9,62.1,90,29.92,10.0,WSW,6.9,-,N/A,,Clear,240,2013-07-08 09:53:00
4:53 AM,64.0,62.1,93,29.93,9.0,WSW,4.6,-,N/A,,Clear,240,2013-07-08 10:53:00
5:53 AM,63.0,61.0,93,29.93,5.0,Calm,Calm,-,N/A,,Clear,0,2013-07-08 11:53:00
6:53 AM,68.0,64.0,87,29.94,7.0,Calm,Calm,-,N/A,,Clear,0,2013-07-08 12:53:00
7:53 AM,71.1,64.9,81,29.94,10.0,East,3.5,-,N/A,,Clear,80,2013-07-08 13:53:00
8:53 AM,75.9,66.0,71,29.93,10.0,ESE,9.2,-,N/A,,Clear,120,2013-07-08 14:53:00
9:53 AM,81.0,66.0,60,29.94,10.0,ESE,6.9,-,N/A,,Clear,110,2013-07-08 15:53:00
10:53 AM,84.0,64.0,51,29.95,10.0,SE,6.9,-,N/A,,Clear,140,2013-07-08 16:53:00
11:53 AM,86.0,64.0,48,29.92,10.0,ESE,9.2,-,N/A,,Clear,120,2013-07-08 17:53:00
12:53 PM,88.0,64.9,46,29.91,10.0,SE,10.4,-,N/A,,Clear,130,2013-07-08 18:53:00
1:53 PM,90.0,63.0,40,29.90,10.0,Variable,6.9,-,N/A,,Clear,0,2013-07-08 19:53:00
2:53 PM,91.9,63.0,38,29.87,10.0,East,6.9,-,N/A,,Clear,100,2013-07-08 20:53:00
3:53 PM,93.0,62.1,36,29.85,10.0,ESE,11.5,-,N/A,,Clear,110,2013-07-08 21:53:00
4:53 PM,93.9,61.0,33,29.83,10.0,East,6.9,-,N/A,,Clear,100,2013-07-08 22:53:00
5:53 PM,90.0,63.0,40,29.82,10.0,East,5.8,-,N/A,,Clear,90,2013-07-08 23:53:00
6:53 PM,88.0,66.9,49,29.83,10.0,NE,4.6,-,N/A,,Clear,50,2013-07-09 00:53:00
7:53 PM,84.0,68.0,58,29.83,10.0,North,8.1,-,N/A,,Clear,10,2013-07-09 01:53:00
8:53 PM,81.0,64.9,58,29.83,10.0,NE,8.1,-,N/A,,Clear,40,2013-07-09 02:53:00
9:53 PM,80.1,66.0,62,29.84,10.0,ENE,8.1,-,N/A,,Clear,70,2013-07-09 03:53:00
10:53 PM,75.0,66.0,73,29.84,10.0,NE,4.6,-,N/A,,Clear,40,2013-07-09 04:53:00
11:53 PM,71.1,66.0,84,29.87,10.0,North,6.9,-,N/A,,Clear,350,2013-07-09 05:53:00